sensor_id;sensor_type;location;lat;lon;timestamp;temperature;humidity
37956;DHT22;23776;51.592;7.180;2022-12-18T00:02:22;-6.00;1.00
37956;DHT22;23776;51.592;7.180;2022-12-18T00:04:48;-6.10;1.00
37956;DHT22;23776;51.592;7.180;2022-12-18T00:07:13;-6.10;1.00
37956;DHT22;23776;51.592;7.180;2022-12-18T00:09:39;-6.30;1.00
37956;DHT22;23776;51.592;7.180;2022-12-18T00:12:05;-6.30;1.00
37956;DHT22;23776;51.592;7.180;2022-12-18T00:14:31;-6.40;1.00
37956;DHT22;23776;51.592;7.180;2022-12-18T00:16:56;-6.40;1.00
37956;DHT22;23776;51.592;7.180;2022-12-18T00:19:23;-6.20;1.00
37956;DHT22;23776;51.592;7.180;2022-12-18T00:21:49;-6.30;1.00
37956;DHT22;23776;51.592;7.180;2022-12-18T00:24:14;-6.20;1.00
37956;DHT22;23776;51.592;7.180;2022-12-18T00:26:40;-6.10;1.00
37956;DHT22;23776;51.592;7.180;2022-12-18T00:29:11;-6.10;1.00
37956;DHT22;23776;51.592;7.180;2022-12-18T00:31:37;-6.20;1.00
37956;DHT22;23776;51.592;7.180;2022-12-18T00:34:03;-6.30;1.00
37956;DHT22;23776;51.592;7.180;2022-12-18T00:36:31;-4.40;1.00
37956;DHT22;23776;51.592;7.180;2022-12-18T00:38:59;-6.30;1.00
37956;DHT22;23776;51.592;7.180;2022-12-18T00:41:26;-6.30;1.00
37956;DHT22;23776;51.592;7.180;2022-12-18T00:44:13;-6.40;1.00
37956;DHT22;23776;51.592;7.180;2022-12-18T00:46:39;-6.20;1.00
37956;DHT22;23776;51.592;7.180;2022-12-18T00:49:04;-6.20;1.00
37956;DHT22;23776;51.592;7.180;2022-12-18T00:51:30;-6.20;1.00
37956;DHT22;23776;51.592;7.180;2022-12-18T00:53:56;-6.30;1.00
37956;DHT22;23776;51.592;7.180;2022-12-18T00:56:22;-6.30;1.00
37956;DHT22;23776;51.592;7.180;2022-12-18T00:58:47;-6.30;1.00
37956;DHT22;23776;51.592;7.180;2022-12-18T01:01:13;-6.30;1.00
37956;DHT22;23776;51.592;7.180;2022-12-18T01:03:39;-6.30;1.00
37956;DHT22;23776;51.592;7.180;2022-12-18T01:06:10;-6.40;1.00
37956;DHT22;23776;51.592;7.180;2022-12-18T01:08:37;-6.40;1.00
37956;DHT22;23776;51.592;7.180;2022-12-18T01:11:17;-6.40;1.00
37956;DHT22;23776;51.592;7.180;2022-12-18T01:13:43;-6.40;1.00
37956;DHT22;23776;51.592;7.180;2022-12-18T01:16:11;-6.30;1.00
37956;DHT22;23776;51.592;7.180;2022-12-18T01:18:37;-6.30;1.00
37956;DHT22;23776;51.592;7.180;2022-12-18T01:21:07;-6.20;1.00
37956;DHT22;23776;51.592;7.180;2022-12-18T01:23:33;-6.20;1.00
37956;DHT22;23776;51.592;7.180;2022-12-18T01:26:05;-6.20;1.00
37956;DHT22;23776;51.592;7.180;2022-12-18T01:28:31;-6.30;1.00
37956;DHT22;23776;51.592;7.180;2022-12-18T01:30:56;-6.40;1.00
37956;DHT22;23776;51.592;7.180;2022-12-18T01:33:22;-6.40;1.00
37956;DHT22;23776;51.592;7.180;2022-12-18T01:35:47;-6.40;1.00
37956;DHT22;23776;51.592;7.180;2022-12-18T01:38:13;-6.40;1.00
37956;DHT22;23776;51.592;7.180;2022-12-18T01:40:38;-6.30;1.00
37956;DHT22;23776;51.592;7.180;2022-12-18T01:43:04;-6.30;1.00
37956;DHT22;23776;51.592;7.180;2022-12-18T01:45:31;-6.40;1.00
37956;DHT22;23776;51.592;7.180;2022-12-18T01:48:05;-6.50;1.00
37956;DHT22;23776;51.592;7.180;2022-12-18T01:50:40;-6.60;1.00
37956;DHT22;23776;51.592;7.180;2022-12-18T01:53:11;-6.60;1.00
37956;DHT22;23776;51.592;7.180;2022-12-18T01:55:45;-6.60;1.00
37956;DHT22;23776;51.592;7.180;2022-12-18T01:58:11;-6.70;1.00
37956;DHT22;23776;51.592;7.180;2022-12-18T02:00:37;-6.70;1.00
37956;DHT22;23776;51.592;7.180;2022-12-18T02:03:03;-6.60;1.00
37956;DHT22;23776;51.592;7.180;2022-12-18T02:05:47;-6.60;1.00
37956;DHT22;23776;51.592;7.180;2022-12-18T02:08:21;-6.60;1.00
37956;DHT22;23776;51.592;7.180;2022-12-18T02:10:54;-6.60;1.00
37956;DHT22;23776;51.592;7.180;2022-12-18T02:13:49;-6.60;1.00
37956;DHT22;23776;51.592;7.180;2022-12-18T02:17:10;-6.70;1.00
37956;DHT22;23776;51.592;7.180;2022-12-18T02:27:37;-6.90;1.00
37956;DHT22;23776;51.592;7.180;2022-12-18T02:30:04;-6.90;1.00
37956;DHT22;23776;51.592;7.180;2022-12-18T02:32:36;-6.90;1.00
37956;DHT22;23776;51.592;7.180;2022-12-18T02:35:04;-6.90;1.00
37956;DHT22;23776;51.592;7.180;2022-12-18T02:37:31;-6.90;1.00
37956;DHT22;23776;51.592;7.180;2022-12-18T02:39:58;-6.90;1.00
37956;DHT22;23776;51.592;7.180;2022-12-18T02:42:24;-6.80;1.00
37956;DHT22;23776;51.592;7.180;2022-12-18T02:44:52;-6.90;1.00
37956;DHT22;23776;51.592;7.180;2022-12-18T02:47:21;-6.80;1.00
37956;DHT22;23776;51.592;7.180;2022-12-18T02:53:05;-6.90;1.00
37956;DHT22;23776;51.592;7.180;2022-12-18T03:01:07;-7.00;1.00
37956;DHT22;23776;51.592;7.180;2022-12-18T03:03:50;-6.80;1.00
37956;DHT22;23776;51.592;7.180;2022-12-18T03:06:32;-6.60;1.00
37956;DHT22;23776;51.592;7.180;2022-12-18T03:09:07;-6.60;1.00
37956;DHT22;23776;51.592;7.180;2022-12-18T03:11:35;-6.70;1.00
37956;DHT22;23776;51.592;7.180;2022-12-18T03:14:22;-6.80;1.00
37956;DHT22;23776;51.592;7.180;2022-12-18T03:16:52;-7.00;1.00
37956;DHT22;23776;51.592;7.180;2022-12-18T03:19:22;-7.00;1.00
37956;DHT22;23776;51.592;7.180;2022-12-18T03:21:53;-7.00;1.00
37956;DHT22;23776;51.592;7.180;2022-12-18T03:24:21;-7.00;1.00
37956;DHT22;23776;51.592;7.180;2022-12-18T03:26:52;-6.90;1.00
37956;DHT22;23776;51.592;7.180;2022-12-18T03:29:27;-6.80;1.00
37956;DHT22;23776;51.592;7.180;2022-12-18T03:32:11;-6.80;1.00
37956;DHT22;23776;51.592;7.180;2022-12-18T03:34:38;-6.70;1.00
37956;DHT22;23776;51.592;7.180;2022-12-18T03:37:05;-6.80;1.00
37956;DHT22;23776;51.592;7.180;2022-12-18T03:39:32;-6.70;1.00
37956;DHT22;23776;51.592;7.180;2022-12-18T03:42:13;-6.70;1.00
37956;DHT22;23776;51.592;7.180;2022-12-18T03:47:59;-6.90;1.00
37956;DHT22;23776;51.592;7.180;2022-12-18T03:52:45;-6.90;1.00
37956;DHT22;23776;51.592;7.180;2022-12-18T03:55:15;-7.00;1.00
37956;DHT22;23776;51.592;7.180;2022-12-18T03:57:42;-7.00;1.00
37956;DHT22;23776;51.592;7.180;2022-12-18T04:00:12;-7.00;1.00
37956;DHT22;23776;51.592;7.180;2022-12-18T04:02:43;-7.00;1.00
37956;DHT22;23776;51.592;7.180;2022-12-18T04:05:11;-7.00;1.00
37956;DHT22;23776;51.592;7.180;2022-12-18T04:07:37;-7.20;1.00
37956;DHT22;23776;51.592;7.180;2022-12-18T04:10:06;-7.10;1.00
37956;DHT22;23776;51.592;7.180;2022-12-18T04:12:32;-7.10;1.00
37956;DHT22;23776;51.592;7.180;2022-12-18T04:14:58;-7.10;1.00
37956;DHT22;23776;51.592;7.180;2022-12-18T04:17:23;-7.20;1.00
37956;DHT22;23776;51.592;7.180;2022-12-18T04:19:49;-7.20;1.00
37956;DHT22;23776;51.592;7.180;2022-12-18T04:22:15;-7.20;1.00
37956;DHT22;23776;51.592;7.180;2022-12-18T04:24:40;-7.10;1.00
37956;DHT22;23776;51.592;7.180;2022-12-18T04:27:06;-7.10;1.00
37956;DHT22;23776;51.592;7.180;2022-12-18T04:29:31;-7.10;1.00
37956;DHT22;23776;51.592;7.180;2022-12-18T04:31:57;-7.10;1.00
37956;DHT22;23776;51.592;7.180;2022-12-18T04:34:22;-7.20;1.00
37956;DHT22;23776;51.592;7.180;2022-12-18T04:36:48;-7.10;1.00
37956;DHT22;23776;51.592;7.180;2022-12-18T04:39:14;-7.10;1.00
37956;DHT22;23776;51.592;7.180;2022-12-18T04:41:39;-7.00;1.00
37956;DHT22;23776;51.592;7.180;2022-12-18T04:44:05;-6.90;1.00
37956;DHT22;23776;51.592;7.180;2022-12-18T04:46:31;-6.80;1.00
37956;DHT22;23776;51.592;7.180;2022-12-18T04:48:56;-6.90;1.00
37956;DHT22;23776;51.592;7.180;2022-12-18T04:51:22;-6.90;1.00
37956;DHT22;23776;51.592;7.180;2022-12-18T04:53:47;-6.90;1.00
37956;DHT22;23776;51.592;7.180;2022-12-18T04:56:14;-6.80;1.00
37956;DHT22;23776;51.592;7.180;2022-12-18T04:58:41;-6.70;1.00
37956;DHT22;23776;51.592;7.180;2022-12-18T05:01:08;-6.70;1.00
37956;DHT22;23776;51.592;7.180;2022-12-18T05:03:34;-6.70;1.00
37956;DHT22;23776;51.592;7.180;2022-12-18T05:06:00;-6.70;1.00
37956;DHT22;23776;51.592;7.180;2022-12-18T05:08:26;-6.80;1.00
37956;DHT22;23776;51.592;7.180;2022-12-18T05:11:07;-6.80;1.00
37956;DHT22;23776;51.592;7.180;2022-12-18T05:13:33;-6.80;1.00
37956;DHT22;23776;51.592;7.180;2022-12-18T05:15:59;-6.70;1.00
37956;DHT22;23776;51.592;7.180;2022-12-18T05:18:26;-6.70;1.00
37956;DHT22;23776;51.592;7.180;2022-12-18T05:20:53;-6.70;1.00
37956;DHT22;23776;51.592;7.180;2022-12-18T05:23:19;-6.70;1.00
37956;DHT22;23776;51.592;7.180;2022-12-18T05:25:56;-6.70;1.00
37956;DHT22;23776;51.592;7.180;2022-12-18T05:28:23;-6.70;1.00
37956;DHT22;23776;51.592;7.180;2022-12-18T05:30:54;-6.80;1.00
37956;DHT22;23776;51.592;7.180;2022-12-18T05:33:22;-6.70;1.00
37956;DHT22;23776;51.592;7.180;2022-12-18T05:35:52;-6.70;1.00
37956;DHT22;23776;51.592;7.180;2022-12-18T05:38:20;-6.70;1.00
37956;DHT22;23776;51.592;7.180;2022-12-18T05:40:47;-6.60;1.00
37956;DHT22;23776;51.592;7.180;2022-12-18T05:43:13;-6.60;1.00
37956;DHT22;23776;51.592;7.180;2022-12-18T05:45:39;-6.60;1.00
37956;DHT22;23776;51.592;7.180;2022-12-18T05:48:06;-6.50;1.00
37956;DHT22;23776;51.592;7.180;2022-12-18T05:50:36;-6.50;1.00
37956;DHT22;23776;51.592;7.180;2022-12-18T05:53:03;-6.50;1.00
37956;DHT22;23776;51.592;7.180;2022-12-18T05:55:32;-6.10;1.00
37956;DHT22;23776;51.592;7.180;2022-12-18T05:57:58;-6.40;1.00
37956;DHT22;23776;51.592;7.180;2022-12-18T06:00:24;-7.10;1.00
37956;DHT22;23776;51.592;7.180;2022-12-18T06:02:49;-6.50;1.00
37956;DHT22;23776;51.592;7.180;2022-12-18T06:05:15;-6.60;1.00
37956;DHT22;23776;51.592;7.180;2022-12-18T06:07:40;-6.60;1.00
37956;DHT22;23776;51.592;7.180;2022-12-18T06:10:06;-6.70;1.00
37956;DHT22;23776;51.592;7.180;2022-12-18T06:12:32;-6.60;1.00
37956;DHT22;23776;51.592;7.180;2022-12-18T06:14:59;-6.60;1.00
37956;DHT22;23776;51.592;7.180;2022-12-18T06:17:32;-6.60;1.00
37956;DHT22;23776;51.592;7.180;2022-12-18T06:19:58;-6.80;1.00
37956;DHT22;23776;51.592;7.180;2022-12-18T06:22:24;-7.10;1.00
37956;DHT22;23776;51.592;7.180;2022-12-18T06:24:49;-7.20;1.00
37956;DHT22;23776;51.592;7.180;2022-12-18T06:27:15;-7.20;1.00
37956;DHT22;23776;51.592;7.180;2022-12-18T06:29:41;-7.30;1.00
37956;DHT22;23776;51.592;7.180;2022-12-18T06:32:06;-7.30;1.00
37956;DHT22;23776;51.592;7.180;2022-12-18T06:34:32;-7.40;1.00
37956;DHT22;23776;51.592;7.180;2022-12-18T06:36:58;-7.30;1.00
37956;DHT22;23776;51.592;7.180;2022-12-18T06:39:24;-7.20;1.00
37956;DHT22;23776;51.592;7.180;2022-12-18T06:41:50;-7.20;1.00
37956;DHT22;23776;51.592;7.180;2022-12-18T06:44:15;-7.10;1.00
37956;DHT22;23776;51.592;7.180;2022-12-18T06:46:41;-7.10;1.00
37956;DHT22;23776;51.592;7.180;2022-12-18T06:49:07;-7.10;1.00
37956;DHT22;23776;51.592;7.180;2022-12-18T06:51:34;-7.10;1.00
37956;DHT22;23776;51.592;7.180;2022-12-18T06:54:00;-7.10;1.00
37956;DHT22;23776;51.592;7.180;2022-12-18T06:56:25;-7.00;1.00
37956;DHT22;23776;51.592;7.180;2022-12-18T06:58:51;-7.00;1.00
37956;DHT22;23776;51.592;7.180;2022-12-18T07:01:17;-6.90;1.00
37956;DHT22;23776;51.592;7.180;2022-12-18T07:03:42;-6.90;1.00
37956;DHT22;23776;51.592;7.180;2022-12-18T07:06:16;-7.00;1.00
37956;DHT22;23776;51.592;7.180;2022-12-18T07:08:43;-7.00;1.00
37956;DHT22;23776;51.592;7.180;2022-12-18T07:11:08;-7.00;1.00
37956;DHT22;23776;51.592;7.180;2022-12-18T07:13:34;-6.80;1.00
37956;DHT22;23776;51.592;7.180;2022-12-18T07:16:14;-6.80;1.00
37956;DHT22;23776;51.592;7.180;2022-12-18T07:18:39;-6.90;1.00
37956;DHT22;23776;51.592;7.180;2022-12-18T07:21:07;-6.90;1.00
37956;DHT22;23776;51.592;7.180;2022-12-18T07:23:34;-6.90;1.00
37956;DHT22;23776;51.592;7.180;2022-12-18T07:26:11;-6.80;1.00
37956;DHT22;23776;51.592;7.180;2022-12-18T07:28:38;-6.90;1.00
37956;DHT22;23776;51.592;7.180;2022-12-18T07:31:09;-6.80;1.00
37956;DHT22;23776;51.592;7.180;2022-12-18T07:33:34;-6.80;1.00
37956;DHT22;23776;51.592;7.180;2022-12-18T07:36:02;-6.70;1.00
37956;DHT22;23776;51.592;7.180;2022-12-18T07:38:29;-6.70;1.00
37956;DHT22;23776;51.592;7.180;2022-12-18T07:40:54;-6.70;1.00
37956;DHT22;23776;51.592;7.180;2022-12-18T07:43:25;-6.50;1.00
37956;DHT22;23776;51.592;7.180;2022-12-18T07:45:50;-6.60;1.00
37956;DHT22;23776;51.592;7.180;2022-12-18T07:48:16;-6.50;1.00
37956;DHT22;23776;51.592;7.180;2022-12-18T07:50:41;-6.40;1.00
37956;DHT22;23776;51.592;7.180;2022-12-18T07:53:07;-6.40;1.00
37956;DHT22;23776;51.592;7.180;2022-12-18T07:55:32;-6.30;1.00
37956;DHT22;23776;51.592;7.180;2022-12-18T07:58:01;-6.20;1.00
37956;DHT22;23776;51.592;7.180;2022-12-18T08:00:27;-6.10;1.00
37956;DHT22;23776;51.592;7.180;2022-12-18T08:02:53;-6.10;1.00
37956;DHT22;23776;51.592;7.180;2022-12-18T08:05:19;-6.00;1.00
37956;DHT22;23776;51.592;7.180;2022-12-18T08:07:46;-5.90;1.00
37956;DHT22;23776;51.592;7.180;2022-12-18T08:10:11;-5.80;1.00
37956;DHT22;23776;51.592;7.180;2022-12-18T08:12:37;-5.80;1.00
37956;DHT22;23776;51.592;7.180;2022-12-18T08:15:03;-5.70;1.00
37956;DHT22;23776;51.592;7.180;2022-12-18T08:17:28;-5.60;1.00
37956;DHT22;23776;51.592;7.180;2022-12-18T08:19:54;-5.50;1.00
37956;DHT22;23776;51.592;7.180;2022-12-18T08:22:19;-5.50;1.00
37956;DHT22;23776;51.592;7.180;2022-12-18T08:24:45;-5.50;1.00
37956;DHT22;23776;51.592;7.180;2022-12-18T08:27:11;-5.40;1.00
37956;DHT22;23776;51.592;7.180;2022-12-18T08:29:36;-5.30;1.00
37956;DHT22;23776;51.592;7.180;2022-12-18T08:32:02;-5.20;1.00
37956;DHT22;23776;51.592;7.180;2022-12-18T08:34:28;-5.10;1.00
37956;DHT22;23776;51.592;7.180;2022-12-18T08:36:53;-5.00;1.00
37956;DHT22;23776;51.592;7.180;2022-12-18T08:39:19;-5.00;1.00
37956;DHT22;23776;51.592;7.180;2022-12-18T08:41:45;-4.90;1.00
37956;DHT22;23776;51.592;7.180;2022-12-18T08:44:30;-4.90;1.00
37956;DHT22;23776;51.592;7.180;2022-12-18T08:47:08;-4.80;1.00
37956;DHT22;23776;51.592;7.180;2022-12-18T08:49:34;-4.80;1.00
37956;DHT22;23776;51.592;7.180;2022-12-18T08:52:00;-4.80;1.00
37956;DHT22;23776;51.592;7.180;2022-12-18T08:54:27;-4.70;1.00
37956;DHT22;23776;51.592;7.180;2022-12-18T08:56:53;-4.60;1.00
37956;DHT22;23776;51.592;7.180;2022-12-18T08:59:18;-4.50;1.00
37956;DHT22;23776;51.592;7.180;2022-12-18T09:01:45;-4.40;1.00
37956;DHT22;23776;51.592;7.180;2022-12-18T09:04:11;-4.20;1.00
37956;DHT22;23776;51.592;7.180;2022-12-18T09:06:37;-4.10;1.00
37956;DHT22;23776;51.592;7.180;2022-12-18T09:09:04;-4.10;1.00
37956;DHT22;23776;51.592;7.180;2022-12-18T09:11:30;-4.00;1.00
37956;DHT22;23776;51.592;7.180;2022-12-18T09:13:57;-3.90;1.00
37956;DHT22;23776;51.592;7.180;2022-12-18T09:16:24;-3.80;1.00
37956;DHT22;23776;51.592;7.180;2022-12-18T09:18:50;-3.70;1.00
37956;DHT22;23776;51.592;7.180;2022-12-18T09:21:20;-3.60;1.00
37956;DHT22;23776;51.592;7.180;2022-12-18T09:23:50;-3.50;1.00
37956;DHT22;23776;51.592;7.180;2022-12-18T09:26:15;-3.50;1.00
37956;DHT22;23776;51.592;7.180;2022-12-18T09:28:41;-3.40;1.00
37956;DHT22;23776;51.592;7.180;2022-12-18T09:31:08;-3.40;1.00
37956;DHT22;23776;51.592;7.180;2022-12-18T09:33:35;-3.30;1.00
37956;DHT22;23776;51.592;7.180;2022-12-18T09:36:03;-3.20;1.00
37956;DHT22;23776;51.592;7.180;2022-12-18T09:38:29;-3.10;1.00
37956;DHT22;23776;51.592;7.180;2022-12-18T09:41:15;-3.10;1.00
37956;DHT22;23776;51.592;7.180;2022-12-18T09:43:47;-3.00;1.00
37956;DHT22;23776;51.592;7.180;2022-12-18T09:46:28;-2.80;1.00
37956;DHT22;23776;51.592;7.180;2022-12-18T09:48:59;-2.70;1.00
37956;DHT22;23776;51.592;7.180;2022-12-18T09:51:48;-2.60;1.00
37956;DHT22;23776;51.592;7.180;2022-12-18T09:54:20;-2.40;1.00
37956;DHT22;23776;51.592;7.180;2022-12-18T09:56:47;-2.30;1.00
37956;DHT22;23776;51.592;7.180;2022-12-18T09:59:21;-2.20;1.00
37956;DHT22;23776;51.592;7.180;2022-12-18T10:01:48;-2.00;1.00
37956;DHT22;23776;51.592;7.180;2022-12-18T10:04:13;-1.90;1.00
37956;DHT22;23776;51.592;7.180;2022-12-18T10:09:37;-1.60;1.00
37956;DHT22;23776;51.592;7.180;2022-12-18T10:14:51;-1.30;1.00
37956;DHT22;23776;51.592;7.180;2022-12-18T10:17:40;-1.10;1.00
37956;DHT22;23776;51.592;7.180;2022-12-18T10:20:31;-1.10;1.00
37956;DHT22;23776;51.592;7.180;2022-12-18T10:23:24;-1.10;99.90
37956;DHT22;23776;51.592;7.180;2022-12-18T10:26:04;-0.90;99.90
37956;DHT22;23776;51.592;7.180;2022-12-18T10:28:32;-0.80;99.90
37956;DHT22;23776;51.592;7.180;2022-12-18T10:30:58;-0.80;99.90
37956;DHT22;23776;51.592;7.180;2022-12-18T10:33:29;-0.70;50.20
37956;DHT22;23776;51.592;7.180;2022-12-18T10:35:54;-0.60;1.00
37956;DHT22;23776;51.592;7.180;2022-12-18T10:38:21;-0.60;1.00
37956;DHT22;23776;51.592;7.180;2022-12-18T10:43:36;-0.40;1.00
37956;DHT22;23776;51.592;7.180;2022-12-18T10:48:48;-0.30;99.90
37956;DHT22;23776;51.592;7.180;2022-12-18T10:51:22;-0.10;99.90
37956;DHT22;23776;51.592;7.180;2022-12-18T10:53:56;-0.10;99.90
37956;DHT22;23776;51.592;7.180;2022-12-18T10:56:24;0.00;99.90
37956;DHT22;23776;51.592;7.180;2022-12-18T10:59:04;0.10;1.00
37956;DHT22;23776;51.592;7.180;2022-12-18T11:01:53;0.20;1.00
37956;DHT22;23776;51.592;7.180;2022-12-18T11:04:24;0.30;1.00
37956;DHT22;23776;51.592;7.180;2022-12-18T11:09:27;0.40;9.00
37956;DHT22;23776;51.592;7.180;2022-12-18T11:11:56;0.40;1.00
37956;DHT22;23776;51.592;7.180;2022-12-18T11:14:31;0.50;1.00
37956;DHT22;23776;51.592;7.180;2022-12-18T11:16:59;0.50;99.90
37956;DHT22;23776;51.592;7.180;2022-12-18T11:19:34;0.60;99.90
37956;DHT22;23776;51.592;7.180;2022-12-18T11:22:27;0.70;25.40
37956;DHT22;23776;51.592;7.180;2022-12-18T11:27:29;0.80;1.00
37956;DHT22;23776;51.592;7.180;2022-12-18T11:30:08;0.90;99.90
37956;DHT22;23776;51.592;7.180;2022-12-18T11:32:42;0.90;99.90
37956;DHT22;23776;51.592;7.180;2022-12-18T11:35:19;0.90;99.90
37956;DHT22;23776;51.592;7.180;2022-12-18T11:37:59;0.90;1.00
37956;DHT22;23776;51.592;7.180;2022-12-18T11:40:38;1.00;99.90
37956;DHT22;23776;51.592;7.180;2022-12-18T11:43:25;0.90;99.90
37956;DHT22;23776;51.592;7.180;2022-12-18T11:46:08;0.90;1.00
37956;DHT22;23776;51.592;7.180;2022-12-18T11:48:49;0.90;2.30
37956;DHT22;23776;51.592;7.180;2022-12-18T11:51:22;0.90;1.00
37956;DHT22;23776;51.592;7.180;2022-12-18T11:53:51;0.90;99.90
37956;DHT22;23776;51.592;7.180;2022-12-18T11:56:27;1.00;99.90
37956;DHT22;23776;51.592;7.180;2022-12-18T11:59:05;1.00;99.90
37956;DHT22;23776;51.592;7.180;2022-12-18T12:15:21;1.20;89.80
37956;DHT22;23776;51.592;7.180;2022-12-18T12:26:23;1.30;1.00
37956;DHT22;23776;51.592;7.180;2022-12-18T12:32:01;1.30;49.20
37956;DHT22;23776;51.592;7.180;2022-12-18T12:37:56;1.40;99.90
37956;DHT22;23776;51.592;7.180;2022-12-18T12:40:26;0.90;99.90
37956;DHT22;23776;51.592;7.180;2022-12-18T12:42:59;1.40;99.90
37956;DHT22;23776;51.592;7.180;2022-12-18T12:45:59;1.40;99.90
37956;DHT22;23776;51.592;7.180;2022-12-18T12:51:01;1.40;1.00
37956;DHT22;23776;51.592;7.180;2022-12-18T12:53:35;1.40;1.00
37956;DHT22;23776;51.592;7.180;2022-12-18T12:56:02;1.50;36.90
37956;DHT22;23776;51.592;7.180;2022-12-18T13:01:41;1.50;99.90
37956;DHT22;23776;51.592;7.180;2022-12-18T13:04:35;1.50;22.00
37956;DHT22;23776;51.592;7.180;2022-12-18T13:07:20;1.60;1.00
37956;DHT22;23776;51.592;7.180;2022-12-18T13:10:12;1.60;3.90
37956;DHT22;23776;51.592;7.180;2022-12-18T13:18:19;1.50;99.90
37956;DHT22;23776;51.592;7.180;2022-12-18T13:20:46;1.50;99.90
37956;DHT22;23776;51.592;7.180;2022-12-18T13:25:51;1.40;99.90
37956;DHT22;23776;51.592;7.180;2022-12-18T13:31:00;1.30;99.90
37956;DHT22;23776;51.592;7.180;2022-12-18T13:38:43;1.30;99.90
37956;DHT22;23776;51.592;7.180;2022-12-18T13:43:48;1.20;99.90
37956;DHT22;23776;51.592;7.180;2022-12-18T13:46:30;1.30;99.90
37956;DHT22;23776;51.592;7.180;2022-12-18T13:51:42;1.20;1.00
37956;DHT22;23776;51.592;7.180;2022-12-18T13:56:57;1.10;1.00
37956;DHT22;23776;51.592;7.180;2022-12-18T13:59:32;1.10;1.00
37956;DHT22;23776;51.592;7.180;2022-12-18T14:02:00;1.10;1.00
37956;DHT22;23776;51.592;7.180;2022-12-18T14:04:28;1.10;1.00
37956;DHT22;23776;51.592;7.180;2022-12-18T14:07:03;1.10;1.00
37956;DHT22;23776;51.592;7.180;2022-12-18T14:09:34;1.00;1.00
37956;DHT22;23776;51.592;7.180;2022-12-18T14:12:01;1.00;1.00
37956;DHT22;23776;51.592;7.180;2022-12-18T14:14:51;1.00;23.80
37956;DHT22;23776;51.592;7.180;2022-12-18T14:17:18;1.00;99.90
37956;DHT22;23776;51.592;7.180;2022-12-18T14:19:46;0.90;21.50
37956;DHT22;23776;51.592;7.180;2022-12-18T14:22:20;0.90;97.50
37956;DHT22;23776;51.592;7.180;2022-12-18T14:24:47;0.90;90.00
37956;DHT22;23776;51.592;7.180;2022-12-18T14:27:29;0.80;99.90
37956;DHT22;23776;51.592;7.180;2022-12-18T14:29:55;0.80;99.90
37956;DHT22;23776;51.592;7.180;2022-12-18T14:32:21;0.70;99.90
37956;DHT22;23776;51.592;7.180;2022-12-18T14:34:48;0.70;99.90
37956;DHT22;23776;51.592;7.180;2022-12-18T14:37:16;0.70;99.90
37956;DHT22;23776;51.592;7.180;2022-12-18T14:39:55;0.70;99.90
37956;DHT22;23776;51.592;7.180;2022-12-18T14:42:22;0.70;99.90
37956;DHT22;23776;51.592;7.180;2022-12-18T14:44:48;0.70;99.90
37956;DHT22;23776;51.592;7.180;2022-12-18T14:47:15;0.80;99.90
37956;DHT22;23776;51.592;7.180;2022-12-18T14:49:41;0.80;99.90
37956;DHT22;23776;51.592;7.180;2022-12-18T14:52:27;0.70;99.90
37956;DHT22;23776;51.592;7.180;2022-12-18T14:54:54;0.70;99.90
37956;DHT22;23776;51.592;7.180;2022-12-18T14:57:33;0.70;99.90
37956;DHT22;23776;51.592;7.180;2022-12-18T15:00:06;0.70;1.00
37956;DHT22;23776;51.592;7.180;2022-12-18T15:02:35;0.70;1.00
37956;DHT22;23776;51.592;7.180;2022-12-18T15:07:42;0.60;1.00
37956;DHT22;23776;51.592;7.180;2022-12-18T15:20:43;0.60;14.40
37956;DHT22;23776;51.592;7.180;2022-12-18T15:23:25;0.60;43.00
37956;DHT22;23776;51.592;7.180;2022-12-18T15:26:13;0.60;63.50
37956;DHT22;23776;51.592;7.180;2022-12-18T15:28:47;0.60;64.40
37956;DHT22;23776;51.592;7.180;2022-12-18T15:33:42;0.60;99.90
37956;DHT22;23776;51.592;7.180;2022-12-18T15:36:17;0.70;99.90
37956;DHT22;23776;51.592;7.180;2022-12-18T15:38:53;0.70;99.90
37956;DHT22;23776;51.592;7.180;2022-12-18T15:41:21;0.60;99.90
37956;DHT22;23776;51.592;7.180;2022-12-18T15:43:52;0.60;99.90
37956;DHT22;23776;51.592;7.180;2022-12-18T15:46:20;0.60;99.90
37956;DHT22;23776;51.592;7.180;2022-12-18T15:48:48;0.50;99.90
37956;DHT22;23776;51.592;7.180;2022-12-18T15:51:18;0.50;99.90
37956;DHT22;23776;51.592;7.180;2022-12-18T15:53:46;0.50;1.00
37956;DHT22;23776;51.592;7.180;2022-12-18T15:56:13;0.50;4.80
37956;DHT22;23776;51.592;7.180;2022-12-18T15:58:59;0.50;1.00
37956;DHT22;23776;51.592;7.180;2022-12-18T16:01:30;0.60;1.00
37956;DHT22;23776;51.592;7.180;2022-12-18T16:03:56;0.70;78.10
37956;DHT22;23776;51.592;7.180;2022-12-18T16:06:22;0.90;1.00
37956;DHT22;23776;51.592;7.180;2022-12-18T16:08:48;1.00;99.90
37956;DHT22;23776;51.592;7.180;2022-12-18T16:11:31;1.20;1.00
37956;DHT22;23776;51.592;7.180;2022-12-18T16:14:22;1.40;99.90
37956;DHT22;23776;51.592;7.180;2022-12-18T16:16:50;1.40;1.00
37956;DHT22;23776;51.592;7.180;2022-12-18T16:19:16;1.40;1.00
37956;DHT22;23776;51.592;7.180;2022-12-18T16:21:43;1.50;99.90
37956;DHT22;23776;51.592;7.180;2022-12-18T16:24:19;-0.10;99.90
37956;DHT22;23776;51.592;7.180;2022-12-18T16:26:47;1.60;99.90
37956;DHT22;23776;51.592;7.180;2022-12-18T16:29:13;1.60;99.90
37956;DHT22;23776;51.592;7.180;2022-12-18T16:31:39;1.70;99.90
37956;DHT22;23776;51.592;7.180;2022-12-18T16:34:23;1.70;99.90
37956;DHT22;23776;51.592;7.180;2022-12-18T16:36:52;1.70;99.90
37956;DHT22;23776;51.592;7.180;2022-12-18T16:39:19;1.60;99.90
37956;DHT22;23776;51.592;7.180;2022-12-18T16:41:45;1.60;99.90
37956;DHT22;23776;51.592;7.180;2022-12-18T16:44:11;1.60;99.90
37956;DHT22;23776;51.592;7.180;2022-12-18T16:46:37;1.60;1.00
37956;DHT22;23776;51.592;7.180;2022-12-18T16:49:04;1.70;1.00
37956;DHT22;23776;51.592;7.180;2022-12-18T16:51:30;1.70;1.00
37956;DHT22;23776;51.592;7.180;2022-12-18T16:53:56;1.70;1.00
37956;DHT22;23776;51.592;7.180;2022-12-18T16:56:22;1.70;1.00
37956;DHT22;23776;51.592;7.180;2022-12-18T16:58:56;1.60;1.00
37956;DHT22;23776;51.592;7.180;2022-12-18T17:01:23;1.70;1.00
37956;DHT22;23776;51.592;7.180;2022-12-18T17:06:18;1.70;1.00
37956;DHT22;23776;51.592;7.180;2022-12-18T17:08:44;1.80;1.00
37956;DHT22;23776;51.592;7.180;2022-12-18T17:11:10;1.70;43.60
37956;DHT22;23776;51.592;7.180;2022-12-18T17:13:35;1.70;99.90
37956;DHT22;23776;51.592;7.180;2022-12-18T17:16:02;1.80;99.90
37956;DHT22;23776;51.592;7.180;2022-12-18T17:18:28;1.80;99.90
37956;DHT22;23776;51.592;7.180;2022-12-18T17:21:02;1.80;99.90
37956;DHT22;23776;51.592;7.180;2022-12-18T17:23:28;1.80;99.90
37956;DHT22;23776;51.592;7.180;2022-12-18T17:25:55;1.80;99.90
37956;DHT22;23776;51.592;7.180;2022-12-18T17:28:22;1.90;1.00
37956;DHT22;23776;51.592;7.180;2022-12-18T17:30:47;1.90;1.00
37956;DHT22;23776;51.592;7.180;2022-12-18T17:33:13;1.90;1.00
37956;DHT22;23776;51.592;7.180;2022-12-18T17:35:38;1.80;10.60
37956;DHT22;23776;51.592;7.180;2022-12-18T17:38:04;1.80;83.10
37956;DHT22;23776;51.592;7.180;2022-12-18T17:40:32;1.80;99.90
37956;DHT22;23776;51.592;7.180;2022-12-18T17:42:57;1.80;99.90
37956;DHT22;23776;51.592;7.180;2022-12-18T17:45:24;1.80;99.90
37956;DHT22;23776;51.592;7.180;2022-12-18T17:47:50;1.80;99.90
37956;DHT22;23776;51.592;7.180;2022-12-18T17:50:15;1.70;99.90
37956;DHT22;23776;51.592;7.180;2022-12-18T17:52:41;1.70;99.90
37956;DHT22;23776;51.592;7.180;2022-12-18T17:55:07;1.70;1.00
37956;DHT22;23776;51.592;7.180;2022-12-18T17:57:33;1.80;1.00
37956;DHT22;23776;51.592;7.180;2022-12-18T17:59:58;1.80;1.00